sensor_id;sensor_type;location;lat;lon;timestamp;temperature;humidity
11454;DHT22;5783;55.174;61.310;2022-08-20T00:00:06;23.40;47.10
11454;DHT22;5783;55.174;61.310;2022-08-20T00:03:13;23.40;47.20
11454;DHT22;5783;55.174;61.310;2022-08-20T00:05:11;23.40;47.20
11454;DHT22;5783;55.174;61.310;2022-08-20T00:07:40;23.40;47.30
11454;DHT22;5783;55.174;61.310;2022-08-20T00:10:10;23.40;47.30
11454;DHT22;5783;55.174;61.310;2022-08-20T00:15:32;23.30;47.50
11454;DHT22;5783;55.174;61.310;2022-08-20T00:18:02;23.30;47.60
11454;DHT22;5783;55.174;61.310;2022-08-20T00:20:34;23.30;47.70
11454;DHT22;5783;55.174;61.310;2022-08-20T00:23:04;23.30;47.70
11454;DHT22;5783;55.174;61.310;2022-08-20T00:25:34;23.30;47.80
11454;DHT22;5783;55.174;61.310;2022-08-20T00:28:04;23.30;47.80
11454;DHT22;5783;55.174;61.310;2022-08-20T00:30:35;23.30;47.80
11454;DHT22;5783;55.174;61.310;2022-08-20T00:33:24;23.30;47.80
11454;DHT22;5783;55.174;61.310;2022-08-20T00:35:54;23.30;47.90
11454;DHT22;5783;55.174;61.310;2022-08-20T00:38:25;23.40;47.90
11454;DHT22;5783;55.174;61.310;2022-08-20T00:40:56;23.40;47.90
11454;DHT22;5783;55.174;61.310;2022-08-20T00:46:19;23.40;47.90
11454;DHT22;5783;55.174;61.310;2022-08-20T00:48:51;23.30;48.00
11454;DHT22;5783;55.174;61.310;2022-08-20T00:51:41;23.30;48.10
11454;DHT22;5783;55.174;61.310;2022-08-20T00:54:44;23.30;48.10
11454;DHT22;5783;55.174;61.310;2022-08-20T00:59:53;23.30;48.40
11454;DHT22;5783;55.174;61.310;2022-08-20T01:02:24;23.30;48.40
11454;DHT22;5783;55.174;61.310;2022-08-20T01:04:55;23.30;48.50
11454;DHT22;5783;55.174;61.310;2022-08-20T01:07:26;23.30;48.60
11454;DHT22;5783;55.174;61.310;2022-08-20T01:10:17;23.30;48.60
11454;DHT22;5783;55.174;61.310;2022-08-20T01:12:48;23.30;48.60
11454;DHT22;5783;55.174;61.310;2022-08-20T01:15:20;23.30;48.60
11454;DHT22;5783;55.174;61.310;2022-08-20T01:17:54;23.30;48.70
11454;DHT22;5783;55.174;61.310;2022-08-20T01:26:43;23.30;48.60
11454;DHT22;5783;55.174;61.310;2022-08-20T01:32:03;23.20;48.60
11454;DHT22;5783;55.174;61.310;2022-08-20T01:34:34;23.30;48.60
11454;DHT22;5783;55.174;61.310;2022-08-20T01:37:03;23.30;48.80
11454;DHT22;5783;55.174;61.310;2022-08-20T01:39:35;23.30;48.60
11454;DHT22;5783;55.174;61.310;2022-08-20T01:45:14;23.40;48.60
11454;DHT22;5783;55.174;61.310;2022-08-20T01:47:44;23.30;48.70
11454;DHT22;5783;55.174;61.310;2022-08-20T01:50:32;23.30;48.80
11454;DHT22;5783;55.174;61.310;2022-08-20T01:55:53;23.40;48.90
11454;DHT22;5783;55.174;61.310;2022-08-20T01:58:22;23.40;49.00
11454;DHT22;5783;55.174;61.310;2022-08-20T02:00:53;23.40;49.00
11454;DHT22;5783;55.174;61.310;2022-08-20T02:03:22;23.40;49.40
11454;DHT22;5783;55.174;61.310;2022-08-20T02:05:52;23.40;48.90
11454;DHT22;5783;55.174;61.310;2022-08-20T02:08:21;23.40;48.90
11454;DHT22;5783;55.174;61.310;2022-08-20T02:10:50;23.50;48.90
11454;DHT22;5783;55.174;61.310;2022-08-20T02:13:21;23.40;49.00
11454;DHT22;5783;55.174;61.310;2022-08-20T02:15:51;23.50;49.00
11454;DHT22;5783;55.174;61.310;2022-08-20T02:18:21;23.50;49.10
11454;DHT22;5783;55.174;61.310;2022-08-20T02:20:51;23.50;49.10
11454;DHT22;5783;55.174;61.310;2022-08-20T02:23:20;23.50;49.10
11454;DHT22;5783;55.174;61.310;2022-08-20T02:25:49;23.50;49.10
11454;DHT22;5783;55.174;61.310;2022-08-20T02:28:19;23.50;49.10
11454;DHT22;5783;55.174;61.310;2022-08-20T02:30:51;23.50;49.10
11454;DHT22;5783;55.174;61.310;2022-08-20T02:33:22;23.50;49.10
11454;DHT22;5783;55.174;61.310;2022-08-20T02:35:53;23.50;49.10
11454;DHT22;5783;55.174;61.310;2022-08-20T02:38:22;23.50;49.10
11454;DHT22;5783;55.174;61.310;2022-08-20T02:40:52;23.50;49.20
11454;DHT22;5783;55.174;61.310;2022-08-20T02:43:22;23.50;49.20
11454;DHT22;5783;55.174;61.310;2022-08-20T02:45:51;23.60;49.20
11454;DHT22;5783;55.174;61.310;2022-08-20T02:48:21;23.60;49.20
11454;DHT22;5783;55.174;61.310;2022-08-20T02:50:53;23.60;49.20
11454;DHT22;5783;55.174;61.310;2022-08-20T02:53:25;23.60;49.20
11454;DHT22;5783;55.174;61.310;2022-08-20T02:55:55;23.60;49.30
11454;DHT22;5783;55.174;61.310;2022-08-20T02:58:25;23.60;49.40
11454;DHT22;5783;55.174;61.310;2022-08-20T03:00:55;23.60;49.30
11454;DHT22;5783;55.174;61.310;2022-08-20T03:03:24;23.60;49.40
11454;DHT22;5783;55.174;61.310;2022-08-20T03:05:56;23.60;49.50
11454;DHT22;5783;55.174;61.310;2022-08-20T03:08:27;23.60;49.50
11454;DHT22;5783;55.174;61.310;2022-08-20T03:10:57;23.60;49.60
11454;DHT22;5783;55.174;61.310;2022-08-20T03:13:26;23.60;49.60
11454;DHT22;5783;55.174;61.310;2022-08-20T03:15:58;23.60;49.60
11454;DHT22;5783;55.174;61.310;2022-08-20T03:18:30;23.60;49.60
11454;DHT22;5783;55.174;61.310;2022-08-20T03:21:00;23.60;49.70
11454;DHT22;5783;55.174;61.310;2022-08-20T03:23:29;23.60;49.90
11454;DHT22;5783;55.174;61.310;2022-08-20T03:25:59;23.60;50.00
11454;DHT22;5783;55.174;61.310;2022-08-20T03:28:29;23.60;50.20
11454;DHT22;5783;55.174;61.310;2022-08-20T03:30:58;23.60;50.00
11454;DHT22;5783;55.174;61.310;2022-08-20T03:33:28;23.60;49.90
11454;DHT22;5783;55.174;61.310;2022-08-20T03:35:58;23.60;49.80
11454;DHT22;5783;55.174;61.310;2022-08-20T03:38:27;23.60;49.90
11454;DHT22;5783;55.174;61.310;2022-08-20T03:40:56;23.60;50.10
11454;DHT22;5783;55.174;61.310;2022-08-20T03:43:26;23.60;50.10
11454;DHT22;5783;55.174;61.310;2022-08-20T03:45:55;23.60;50.10
11454;DHT22;5783;55.174;61.310;2022-08-20T03:48:25;23.60;50.10
11454;DHT22;5783;55.174;61.310;2022-08-20T03:50:55;23.70;50.20
11454;DHT22;5783;55.174;61.310;2022-08-20T03:53:27;23.70;50.20
11454;DHT22;5783;55.174;61.310;2022-08-20T03:55:59;23.70;50.20
11454;DHT22;5783;55.174;61.310;2022-08-20T03:58:32;23.70;50.20
11454;DHT22;5783;55.174;61.310;2022-08-20T04:01:03;23.70;50.20
11454;DHT22;5783;55.174;61.310;2022-08-20T04:03:32;23.70;50.30
11454;DHT22;5783;55.174;61.310;2022-08-20T04:06:02;23.70;50.30
11454;DHT22;5783;55.174;61.310;2022-08-20T04:08:31;23.70;51.10
11454;DHT22;5783;55.174;61.310;2022-08-20T04:11:01;23.70;51.40
11454;DHT22;5783;55.174;61.310;2022-08-20T04:13:30;23.70;51.50
11454;DHT22;5783;55.174;61.310;2022-08-20T04:16:19;23.70;52.10
11454;DHT22;5783;55.174;61.310;2022-08-20T04:18:48;23.70;52.20
11454;DHT22;5783;55.174;61.310;2022-08-20T04:21:17;23.60;52.30
11454;DHT22;5783;55.174;61.310;2022-08-20T04:23:46;23.60;52.70
11454;DHT22;5783;55.174;61.310;2022-08-20T04:26:16;23.60;52.30
11454;DHT22;5783;55.174;61.310;2022-08-20T04:28:45;23.60;52.60
11454;DHT22;5783;55.174;61.310;2022-08-20T04:31:16;23.60;52.90
11454;DHT22;5783;55.174;61.310;2022-08-20T04:33:45;23.70;53.00
11454;DHT22;5783;55.174;61.310;2022-08-20T04:36:15;23.60;53.00
11454;DHT22;5783;55.174;61.310;2022-08-20T04:38:44;23.70;53.10
11454;DHT22;5783;55.174;61.310;2022-08-20T04:41:13;23.70;53.20
11454;DHT22;5783;55.174;61.310;2022-08-20T04:43:42;23.70;52.90
11454;DHT22;5783;55.174;61.310;2022-08-20T04:46:11;23.70;53.00
11454;DHT22;5783;55.174;61.310;2022-08-20T04:48:40;23.80;53.10
11454;DHT22;5783;55.174;61.310;2022-08-20T04:51:10;23.80;53.10
11454;DHT22;5783;55.174;61.310;2022-08-20T04:54:00;23.80;53.10
11454;DHT22;5783;55.174;61.310;2022-08-20T04:56:34;23.90;53.30
11454;DHT22;5783;55.174;61.310;2022-08-20T04:59:04;23.80;53.20
11454;DHT22;5783;55.174;61.310;2022-08-20T05:01:34;23.90;53.20
11454;DHT22;5783;55.174;61.310;2022-08-20T05:04:03;23.90;53.30
11454;DHT22;5783;55.174;61.310;2022-08-20T05:09:21;24.00;53.20
11454;DHT22;5783;55.174;61.310;2022-08-20T05:11:50;24.10;53.10
11454;DHT22;5783;55.174;61.310;2022-08-20T05:14:19;24.20;53.10
11454;DHT22;5783;55.174;61.310;2022-08-20T05:16:48;24.30;52.80
11454;DHT22;5783;55.174;61.310;2022-08-20T05:19:18;24.30;53.10
11454;DHT22;5783;55.174;61.310;2022-08-20T05:21:48;24.40;52.80
11454;DHT22;5783;55.174;61.310;2022-08-20T05:24:18;24.40;53.00
11454;DHT22;5783;55.174;61.310;2022-08-20T05:26:47;24.50;53.00
11454;DHT22;5783;55.174;61.310;2022-08-20T05:29:17;24.50;53.10
11454;DHT22;5783;55.174;61.310;2022-08-20T05:31:47;24.50;53.00
11454;DHT22;5783;55.174;61.310;2022-08-20T05:34:16;24.50;53.10
11454;DHT22;5783;55.174;61.310;2022-08-20T05:36:48;24.60;53.70
11454;DHT22;5783;55.174;61.310;2022-08-20T05:39:20;24.60;53.60
11454;DHT22;5783;55.174;61.310;2022-08-20T05:41:50;24.70;53.60
11454;DHT22;5783;55.174;61.310;2022-08-20T05:44:19;24.70;53.40
11454;DHT22;5783;55.174;61.310;2022-08-20T05:46:49;24.70;53.30
11454;DHT22;5783;55.174;61.310;2022-08-20T05:49:20;24.80;53.20
11454;DHT22;5783;55.174;61.310;2022-08-20T05:51:49;24.80;53.20
11454;DHT22;5783;55.174;61.310;2022-08-20T05:54:19;24.90;54.60
11454;DHT22;5783;55.174;61.310;2022-08-20T05:56:50;24.80;53.10
11454;DHT22;5783;55.174;61.310;2022-08-20T05:59:19;24.90;53.20
11454;DHT22;5783;55.174;61.310;2022-08-20T06:01:49;24.90;53.20
11454;DHT22;5783;55.174;61.310;2022-08-20T06:04:19;24.90;53.20
11454;DHT22;5783;55.174;61.310;2022-08-20T06:07:08;24.90;53.10
11454;DHT22;5783;55.174;61.310;2022-08-20T06:09:37;24.90;53.20
11454;DHT22;5783;55.174;61.310;2022-08-20T06:12:07;24.90;53.30
11454;DHT22;5783;55.174;61.310;2022-08-20T06:14:36;24.90;53.00
11454;DHT22;5783;55.174;61.310;2022-08-20T06:17:08;24.90;53.30
11454;DHT22;5783;55.174;61.310;2022-08-20T06:19:38;24.90;53.40
11454;DHT22;5783;55.174;61.310;2022-08-20T06:22:27;24.90;53.40
11454;DHT22;5783;55.174;61.310;2022-08-20T06:24:56;24.90;53.40
11454;DHT22;5783;55.174;61.310;2022-08-20T06:27:26;24.90;53.40
11454;DHT22;5783;55.174;61.310;2022-08-20T06:29:55;24.90;53.60
11454;DHT22;5783;55.174;61.310;2022-08-20T06:32:25;25.00;53.80
11454;DHT22;5783;55.174;61.310;2022-08-20T06:34:54;25.00;54.00
11454;DHT22;5783;55.174;61.310;2022-08-20T06:37:26;25.00;53.80
11454;DHT22;5783;55.174;61.310;2022-08-20T06:42:49;25.00;53.80
11454;DHT22;5783;55.174;61.310;2022-08-20T06:48:11;25.00;53.90
11454;DHT22;5783;55.174;61.310;2022-08-20T06:50:43;25.00;54.80
11454;DHT22;5783;55.174;61.310;2022-08-20T06:53:15;25.00;55.20
11454;DHT22;5783;55.174;61.310;2022-08-20T06:55:50;25.00;55.50
11454;DHT22;5783;55.174;61.310;2022-08-20T06:58:18;25.00;55.70
11454;DHT22;5783;55.174;61.310;2022-08-20T07:00:48;25.00;56.30
11454;DHT22;5783;55.174;61.310;2022-08-20T07:03:17;25.00;55.70
11454;DHT22;5783;55.174;61.310;2022-08-20T07:05:46;25.00;57.60
11454;DHT22;5783;55.174;61.310;2022-08-20T07:08:16;25.00;58.20
11454;DHT22;5783;55.174;61.310;2022-08-20T07:10:48;25.00;59.20
11454;DHT22;5783;55.174;61.310;2022-08-20T07:15:50;25.00;59.40
11454;DHT22;5783;55.174;61.310;2022-08-20T07:18:19;25.00;60.50
11454;DHT22;5783;55.174;61.310;2022-08-20T07:20:48;25.00;61.10
11454;DHT22;5783;55.174;61.310;2022-08-20T07:23:19;25.00;61.30
11454;DHT22;5783;55.174;61.310;2022-08-20T07:25:49;24.90;61.50
11454;DHT22;5783;55.174;61.310;2022-08-20T07:28:23;24.90;61.60
11454;DHT22;5783;55.174;61.310;2022-08-20T07:30:52;24.90;61.90
11454;DHT22;5783;55.174;61.310;2022-08-20T07:33:42;24.80;62.30
11454;DHT22;5783;55.174;61.310;2022-08-20T07:36:11;24.80;62.60
11454;DHT22;5783;55.174;61.310;2022-08-20T07:38:40;24.80;62.80
11454;DHT22;5783;55.174;61.310;2022-08-20T07:41:12;24.80;63.00
11454;DHT22;5783;55.174;61.310;2022-08-20T07:43:42;24.80;63.20
11454;DHT22;5783;55.174;61.310;2022-08-20T07:46:31;24.80;63.40
11454;DHT22;5783;55.174;61.310;2022-08-20T07:49:00;24.70;63.60
11454;DHT22;5783;55.174;61.310;2022-08-20T07:51:31;24.70;64.20
11454;DHT22;5783;55.174;61.310;2022-08-20T07:54:01;24.60;64.30
11454;DHT22;5783;55.174;61.310;2022-08-20T07:56:31;24.60;64.50
11454;DHT22;5783;55.174;61.310;2022-08-20T07:59:00;24.50;64.60
11454;DHT22;5783;55.174;61.310;2022-08-20T08:01:30;24.50;64.80
11454;DHT22;5783;55.174;61.310;2022-08-20T08:04:00;24.50;65.00
11454;DHT22;5783;55.174;61.310;2022-08-20T08:06:30;24.50;65.10
11454;DHT22;5783;55.174;61.310;2022-08-20T08:09:19;24.50;65.30
11454;DHT22;5783;55.174;61.310;2022-08-20T08:11:49;24.50;65.50
11454;DHT22;5783;55.174;61.310;2022-08-20T08:14:22;24.50;65.00
11454;DHT22;5783;55.174;61.310;2022-08-20T08:16:56;24.50;65.90
11454;DHT22;5783;55.174;61.310;2022-08-20T08:19:28;24.40;66.20
11454;DHT22;5783;55.174;61.310;2022-08-20T08:22:19;24.50;66.30
11454;DHT22;5783;55.174;61.310;2022-08-20T08:24:48;24.50;66.40
11454;DHT22;5783;55.174;61.310;2022-08-20T08:27:17;24.50;66.90
11454;DHT22;5783;55.174;61.310;2022-08-20T08:29:47;24.50;67.30
11454;DHT22;5783;55.174;61.310;2022-08-20T08:32:17;24.50;67.30
11454;DHT22;5783;55.174;61.310;2022-08-20T08:34:46;24.50;67.80
11454;DHT22;5783;55.174;61.310;2022-08-20T08:37:15;24.50;68.20
11454;DHT22;5783;55.174;61.310;2022-08-20T08:45:08;24.60;67.80
11454;DHT22;5783;55.174;61.310;2022-08-20T08:47:38;24.60;67.90
11454;DHT22;5783;55.174;61.310;2022-08-20T08:50:14;24.60;68.00
11454;DHT22;5783;55.174;61.310;2022-08-20T08:52:41;24.70;67.10
11454;DHT22;5783;55.174;61.310;2022-08-20T08:55:13;24.70;67.10
11454;DHT22;5783;55.174;61.310;2022-08-20T08:57:45;24.70;67.50
11454;DHT22;5783;55.174;61.310;2022-08-20T09:00:34;24.80;67.00
11454;DHT22;5783;55.174;61.310;2022-08-20T09:06:16;24.80;66.50
11454;DHT22;5783;55.174;61.310;2022-08-20T09:12:02;24.70;65.90
11454;DHT22;5783;55.174;61.310;2022-08-20T09:14:28;24.80;66.20
11454;DHT22;5783;55.174;61.310;2022-08-20T09:16:57;24.80;66.40
11454;DHT22;5783;55.174;61.310;2022-08-20T09:19:27;24.70;65.80
11454;DHT22;5783;55.174;61.310;2022-08-20T09:21:56;24.70;66.10
11454;DHT22;5783;55.174;61.310;2022-08-20T09:24:26;24.80;66.10
11454;DHT22;5783;55.174;61.310;2022-08-20T09:26:55;24.80;66.20
11454;DHT22;5783;55.174;61.310;2022-08-20T09:29:24;24.80;66.20
11454;DHT22;5783;55.174;61.310;2022-08-20T09:34:46;24.80;66.30
11454;DHT22;5783;55.174;61.310;2022-08-20T09:37:17;24.80;66.80
11454;DHT22;5783;55.174;61.310;2022-08-20T09:39:47;24.90;67.20
11454;DHT22;5783;55.174;61.310;2022-08-20T09:45:06;24.90;67.40
11454;DHT22;5783;55.174;61.310;2022-08-20T09:47:36;24.90;67.60
11454;DHT22;5783;55.174;61.310;2022-08-20T09:50:06;24.90;67.40
11454;DHT22;5783;55.174;61.310;2022-08-20T09:52:38;24.90;67.80
11454;DHT22;5783;55.174;61.310;2022-08-20T09:57:59;24.90;67.80
11454;DHT22;5783;55.174;61.310;2022-08-20T10:00:29;24.90;68.30
11454;DHT22;5783;55.174;61.310;2022-08-20T10:02:58;24.90;68.70
11454;DHT22;5783;55.174;61.310;2022-08-20T10:05:29;24.90;69.00
11454;DHT22;5783;55.174;61.310;2022-08-20T10:07:58;24.90;69.20
11454;DHT22;5783;55.174;61.310;2022-08-20T10:10:27;24.90;69.30
11454;DHT22;5783;55.174;61.310;2022-08-20T10:12:56;24.90;69.20
11454;DHT22;5783;55.174;61.310;2022-08-20T10:15:26;25.00;69.40
11454;DHT22;5783;55.174;61.310;2022-08-20T10:17:55;25.00;70.00
11454;DHT22;5783;55.174;61.310;2022-08-20T10:20:25;25.10;70.20
11454;DHT22;5783;55.174;61.310;2022-08-20T10:22:55;25.10;71.20
11454;DHT22;5783;55.174;61.310;2022-08-20T10:25:25;25.10;78.20
11454;DHT22;5783;55.174;61.310;2022-08-20T10:27:54;25.20;71.00
11454;DHT22;5783;55.174;61.310;2022-08-20T10:30:24;25.20;70.60
11454;DHT22;5783;55.174;61.310;2022-08-20T10:32:54;25.20;70.00
11454;DHT22;5783;55.174;61.310;2022-08-20T10:35:23;25.20;72.10
11454;DHT22;5783;55.174;61.310;2022-08-20T10:37:52;25.30;69.90
11454;DHT22;5783;55.174;61.310;2022-08-20T10:40:21;25.30;69.70
11454;DHT22;5783;55.174;61.310;2022-08-20T10:42:52;25.40;69.30
11454;DHT22;5783;55.174;61.310;2022-08-20T10:45:21;25.40;69.10
11454;DHT22;5783;55.174;61.310;2022-08-20T10:47:51;25.40;69.30
11454;DHT22;5783;55.174;61.310;2022-08-20T10:50:20;25.40;69.10
11454;DHT22;5783;55.174;61.310;2022-08-20T10:52:49;25.40;69.20
11454;DHT22;5783;55.174;61.310;2022-08-20T10:55:18;25.40;69.00
11454;DHT22;5783;55.174;61.310;2022-08-20T10:57:48;25.40;68.70
11454;DHT22;5783;55.174;61.310;2022-08-20T11:00:18;25.40;68.20
11454;DHT22;5783;55.174;61.310;2022-08-20T11:02:48;25.40;68.10
11454;DHT22;5783;55.174;61.310;2022-08-20T11:05:17;25.40;67.60
11454;DHT22;5783;55.174;61.310;2022-08-20T11:07:48;25.50;67.10
11454;DHT22;5783;55.174;61.310;2022-08-20T11:10:18;25.50;67.10
11454;DHT22;5783;55.174;61.310;2022-08-20T11:12:47;25.50;66.60
11454;DHT22;5783;55.174;61.310;2022-08-20T11:15:16;25.60;66.10
11454;DHT22;5783;55.174;61.310;2022-08-20T11:17:45;25.60;65.50
11454;DHT22;5783;55.174;61.310;2022-08-20T11:20:17;25.70;65.00
11454;DHT22;5783;55.174;61.310;2022-08-20T11:22:47;25.70;63.40
11454;DHT22;5783;55.174;61.310;2022-08-20T11:25:16;25.70;62.90
11454;DHT22;5783;55.174;61.310;2022-08-20T11:27:47;25.80;62.30
11454;DHT22;5783;55.174;61.310;2022-08-20T11:30:21;25.80;61.30
11454;DHT22;5783;55.174;61.310;2022-08-20T11:32:49;25.90;60.90
11454;DHT22;5783;55.174;61.310;2022-08-20T11:35:19;25.90;60.70
11454;DHT22;5783;55.174;61.310;2022-08-20T11:37:50;25.90;60.80
11454;DHT22;5783;55.174;61.310;2022-08-20T11:40:21;26.10;63.00
11454;DHT22;5783;55.174;61.310;2022-08-20T11:42:51;26.00;60.50
11454;DHT22;5783;55.174;61.310;2022-08-20T11:45:20;26.10;60.00
11454;DHT22;5783;55.174;61.310;2022-08-20T11:47:49;26.10;59.70
11454;DHT22;5783;55.174;61.310;2022-08-20T11:50:20;26.10;59.40
11454;DHT22;5783;55.174;61.310;2022-08-20T11:52:49;26.10;58.90
11454;DHT22;5783;55.174;61.310;2022-08-20T11:55:18;26.10;58.40
11454;DHT22;5783;55.174;61.310;2022-08-20T11:57:48;26.10;58.20
11454;DHT22;5783;55.174;61.310;2022-08-20T12:00:20;26.10;58.30
11454;DHT22;5783;55.174;61.310;2022-08-20T12:02:50;26.10;58.40
11454;DHT22;5783;55.174;61.310;2022-08-20T12:05:19;26.10;58.30
11454;DHT22;5783;55.174;61.310;2022-08-20T12:07:48;26.20;58.30
11454;DHT22;5783;55.174;61.310;2022-08-20T12:10:17;26.20;58.20
11454;DHT22;5783;55.174;61.310;2022-08-20T12:12:48;26.10;58.00
11454;DHT22;5783;55.174;61.310;2022-08-20T12:15:17;26.10;58.20
11454;DHT22;5783;55.174;61.310;2022-08-20T12:17:47;26.10;58.20
11454;DHT22;5783;55.174;61.310;2022-08-20T12:20:16;26.10;58.20
11454;DHT22;5783;55.174;61.310;2022-08-20T12:22:45;26.10;58.30
11454;DHT22;5783;55.174;61.310;2022-08-20T12:25:14;26.10;58.50
11454;DHT22;5783;55.174;61.310;2022-08-20T12:27:45;26.10;58.50
11454;DHT22;5783;55.174;61.310;2022-08-20T12:30:17;26.10;58.60
11454;DHT22;5783;55.174;61.310;2022-08-20T12:32:47;26.00;58.60
11454;DHT22;5783;55.174;61.310;2022-08-20T12:37:49;26.00;58.10
11454;DHT22;5783;55.174;61.310;2022-08-20T12:40:25;25.90;57.10
11454;DHT22;5783;55.174;61.310;2022-08-20T12:42:53;25.90;56.60
11454;DHT22;5783;55.174;61.310;2022-08-20T12:45:24;25.90;56.30
11454;DHT22;5783;55.174;61.310;2022-08-20T12:47:58;25.90;55.80
11454;DHT22;5783;55.174;61.310;2022-08-20T12:50:25;25.90;55.50
11454;DHT22;5783;55.174;61.310;2022-08-20T12:52:54;25.90;55.30
11454;DHT22;5783;55.174;61.310;2022-08-20T12:55:24;25.90;54.80
11454;DHT22;5783;55.174;61.310;2022-08-20T12:57:55;25.90;54.90
11454;DHT22;5783;55.174;61.310;2022-08-20T13:00:30;25.90;55.10
11454;DHT22;5783;55.174;61.310;2022-08-20T13:03:00;25.90;55.50
11454;DHT22;5783;55.174;61.310;2022-08-20T13:05:32;25.90;55.90
11454;DHT22;5783;55.174;61.310;2022-08-20T13:08:35;25.90;56.30
11454;DHT22;5783;55.174;61.310;2022-08-20T13:10:36;25.90;56.60
11454;DHT22;5783;55.174;61.310;2022-08-20T13:13:08;25.90;56.70
11454;DHT22;5783;55.174;61.310;2022-08-20T13:15:38;25.90;56.30
11454;DHT22;5783;55.174;61.310;2022-08-20T13:18:07;25.80;56.90
11454;DHT22;5783;55.174;61.310;2022-08-20T13:20:37;25.80;56.90
11454;DHT22;5783;55.174;61.310;2022-08-20T13:23:06;25.80;57.00
11454;DHT22;5783;55.174;61.310;2022-08-20T13:25:35;25.80;57.00
11454;DHT22;5783;55.174;61.310;2022-08-20T13:28:04;25.80;57.20
11454;DHT22;5783;55.174;61.310;2022-08-20T13:30:34;25.70;57.50
11454;DHT22;5783;55.174;61.310;2022-08-20T13:33:04;25.70;57.80
11454;DHT22;5783;55.174;61.310;2022-08-20T13:35:34;25.80;57.90
11454;DHT22;5783;55.174;61.310;2022-08-20T13:38:03;25.70;58.10
11454;DHT22;5783;55.174;61.310;2022-08-20T13:40:32;25.70;58.50
11454;DHT22;5783;55.174;61.310;2022-08-20T13:43:01;25.70;58.90
11454;DHT22;5783;55.174;61.310;2022-08-20T13:45:30;25.70;59.20
11454;DHT22;5783;55.174;61.310;2022-08-20T13:47:59;25.70;59.80
11454;DHT22;5783;55.174;61.310;2022-08-20T13:50:28;25.70;60.10
11454;DHT22;5783;55.174;61.310;2022-08-20T13:52:58;25.70;60.00
11454;DHT22;5783;55.174;61.310;2022-08-20T13:55:27;25.60;59.50
11454;DHT22;5783;55.174;61.310;2022-08-20T13:57:57;25.60;61.00
11454;DHT22;5783;55.174;61.310;2022-08-20T14:00:29;25.60;61.90
11454;DHT22;5783;55.174;61.310;2022-08-20T14:03:18;25.60;62.50
11454;DHT22;5783;55.174;61.310;2022-08-20T14:05:47;25.60;62.90
11454;DHT22;5783;55.174;61.310;2022-08-20T14:08:20;25.60;63.50
11454;DHT22;5783;55.174;61.310;2022-08-20T14:10:49;25.50;63.50
11454;DHT22;5783;55.174;61.310;2022-08-20T14:13:21;25.50;63.30
11454;DHT22;5783;55.174;61.310;2022-08-20T14:15:51;25.50;63.40
11454;DHT22;5783;55.174;61.310;2022-08-20T14:18:22;25.50;63.70
11454;DHT22;5783;55.174;61.310;2022-08-20T14:20:51;25.50;64.20
11454;DHT22;5783;55.174;61.310;2022-08-20T14:23:20;25.50;63.90
11454;DHT22;5783;55.174;61.310;2022-08-20T14:25:50;25.40;63.60
11454;DHT22;5783;55.174;61.310;2022-08-20T14:28:21;25.40;64.00
11454;DHT22;5783;55.174;61.310;2022-08-20T14:30:50;25.40;63.30
11454;DHT22;5783;55.174;61.310;2022-08-20T14:33:21;25.40;63.40
11454;DHT22;5783;55.174;61.310;2022-08-20T14:35:51;25.40;63.40
11454;DHT22;5783;55.174;61.310;2022-08-20T14:38:22;25.40;64.00
11454;DHT22;5783;55.174;61.310;2022-08-20T14:40:51;25.40;64.30
11454;DHT22;5783;55.174;61.310;2022-08-20T14:43:21;25.40;64.20
11454;DHT22;5783;55.174;61.310;2022-08-20T14:45:50;25.40;65.20
11454;DHT22;5783;55.174;61.310;2022-08-20T14:48:20;25.30;66.00
11454;DHT22;5783;55.174;61.310;2022-08-20T14:50:51;25.30;65.30
11454;DHT22;5783;55.174;61.310;2022-08-20T14:53:39;25.30;65.30
11454;DHT22;5783;55.174;61.310;2022-08-20T14:56:08;25.30;64.20
11454;DHT22;5783;55.174;61.310;2022-08-20T14:58:38;25.20;64.60
11454;DHT22;5783;55.174;61.310;2022-08-20T15:01:07;25.20;64.80
11454;DHT22;5783;55.174;61.310;2022-08-20T15:03:36;25.30;64.40
11454;DHT22;5783;55.174;61.310;2022-08-20T15:06:05;25.30;64.20
11454;DHT22;5783;55.174;61.310;2022-08-20T15:08:34;25.30;63.90
11454;DHT22;5783;55.174;61.310;2022-08-20T15:11:03;25.20;64.00
11454;DHT22;5783;55.174;61.310;2022-08-20T15:13:34;25.20;63.90
11454;DHT22;5783;55.174;61.310;2022-08-20T15:16:03;25.20;64.10
11454;DHT22;5783;55.174;61.310;2022-08-20T15:18:32;25.20;63.80
11454;DHT22;5783;55.174;61.310;2022-08-20T15:21:01;25.10;63.10
11454;DHT22;5783;55.174;61.310;2022-08-20T15:23:30;25.10;63.10
11454;DHT22;5783;55.174;61.310;2022-08-20T15:26:00;25.00;63.30
11454;DHT22;5783;55.174;61.310;2022-08-20T15:28:29;25.00;63.20
11454;DHT22;5783;55.174;61.310;2022-08-20T15:30:58;25.00;63.30
11454;DHT22;5783;55.174;61.310;2022-08-20T15:33:27;25.00;63.40
11454;DHT22;5783;55.174;61.310;2022-08-20T15:35:56;25.00;63.30
11454;DHT22;5783;55.174;61.310;2022-08-20T15:38:25;24.90;63.10
11454;DHT22;5783;55.174;61.310;2022-08-20T15:40:56;24.90;63.20
11454;DHT22;5783;55.174;61.310;2022-08-20T15:43:28;24.90;63.30
11454;DHT22;5783;55.174;61.310;2022-08-20T15:45:58;24.90;63.40
11454;DHT22;5783;55.174;61.310;2022-08-20T15:48:47;24.90;63.40
11454;DHT22;5783;55.174;61.310;2022-08-20T15:54:26;24.90;63.30
11454;DHT22;5783;55.174;61.310;2022-08-20T16:14:56;24.70;63.80
11454;DHT22;5783;55.174;61.310;2022-08-20T16:17:46;24.70;63.90
11454;DHT22;5783;55.174;61.310;2022-08-20T16:23:09;24.70;63.70
11454;DHT22;5783;55.174;61.310;2022-08-20T16:31:22;24.70;63.60
11454;DHT22;5783;55.174;61.310;2022-08-20T16:39:36;24.70;63.30
11454;DHT22;5783;55.174;61.310;2022-08-20T16:42:06;24.70;63.40
11454;DHT22;5783;55.174;61.310;2022-08-20T16:44:39;24.70;63.40
11454;DHT22;5783;55.174;61.310;2022-08-20T16:47:29;24.70;63.20
11454;DHT22;5783;55.174;61.310;2022-08-20T16:52:50;24.70;63.00
11454;DHT22;5783;55.174;61.310;2022-08-20T16:55:21;24.70;62.90
11454;DHT22;5783;55.174;61.310;2022-08-20T16:57:51;24.70;62.90
11454;DHT22;5783;55.174;61.310;2022-08-20T17:03:30;24.70;62.60
11454;DHT22;5783;55.174;61.310;2022-08-20T17:06:00;24.70;62.50
11454;DHT22;5783;55.174;61.310;2022-08-20T17:08:32;24.70;62.60
11454;DHT22;5783;55.174;61.310;2022-08-20T17:11:22;24.70;62.50
11454;DHT22;5783;55.174;61.310;2022-08-20T17:19:33;24.60;62.40
11454;DHT22;5783;55.174;61.310;2022-08-20T17:22:22;24.60;62.50
11454;DHT22;5783;55.174;61.310;2022-08-20T17:24:52;24.60;62.50
11454;DHT22;5783;55.174;61.310;2022-08-20T17:27:41;24.60;62.50
11454;DHT22;5783;55.174;61.310;2022-08-20T17:36:28;24.60;62.60
11454;DHT22;5783;55.174;61.310;2022-08-20T17:39:00;24.60;62.80
11454;DHT22;5783;55.174;61.310;2022-08-20T17:41:32;24.60;62.80
11454;DHT22;5783;55.174;61.310;2022-08-20T17:44:04;24.50;62.80